Time;durP1;ratioP1;P1;durP2;ratioP2;P2;SDS_P1;SDS_P2;PMS_P1;PMS_P2;Temp;Humidity;BMP_temperature;BMP_pressure;BME280_temperature;BME280_humidity;BME280_pressure;Samples;Min_cycle;Max_cycle;Signal;HPM_P1;HPM_P2
2023/05/20 00:00:34;;;;;;;4.60;4.20;;;;;;;;;;5030250;28;20422;-84
2023/05/20 00:03:00;;;;;;;5.77;4.70;;;;;;;;;;5032057;28;20430;-84
2023/05/20 00:05:26;;;;;;;4.82;4.43;;;;;;;;;;5032446;28;20862;-84
2023/05/20 00:07:52;;;;;;;4.63;4.18;;;;;;;;;;5032392;28;20399;-84
2023/05/20 00:10:18;;;;;;;4.80;4.10;;;;;;;;;;5032519;28;21124;-84
2023/05/20 00:12:44;;;;;;;4.75;4.25;;;;;;;;;;5027125;28;20478;-84
2023/05/20 00:15:13;;;;;;;5.13;4.35;;;;;;;;;;5033921;28;20475;-85
2023/05/20 00:17:39;;;;;;;5.13;4.38;;;;;;;;;;5034282;28;20402;-84
2023/05/20 00:20:06;;;;;;;5.38;4.40;;;;;;;;;;5033621;28;20422;-84
2023/05/20 00:22:32;;;;;;;4.70;4.30;;;;;;;;;;5032365;28;20387;-84
2023/05/20 00:24:58;;;;;;;4.57;4.18;;;;;;;;;;5031467;28;20778;-84
2023/05/20 00:27:24;;;;;;;4.28;3.97;;;;;;;;;;5020733;28;21472;-85
2023/05/20 00:29:50;;;;;;;4.82;4.32;;;;;;;;;;5021267;28;20413;-84
2023/05/20 00:32:16;;;;;;;5.15;4.28;;;;;;;;;;5031845;28;20391;-84
2023/05/20 00:34:43;;;;;;;5.40;4.35;;;;;;;;;;5010998;28;20890;-85
2023/05/20 00:37:09;;;;;;;4.30;3.90;;;;;;;;;;5024832;28;20441;-85
2023/05/20 00:39:35;;;;;;;5.20;3.90;;;;;;;;;;5031801;28;20399;-84
2023/05/20 00:42:02;;;;;;;4.87;4.10;;;;;;;;;;5031774;28;20379;-84
2023/05/20 00:44:28;;;;;;;5.30;4.25;;;;;;;;;;5031447;28;20817;-85
2023/05/20 00:46:54;;;;;;;4.22;3.85;;;;;;;;;;5030787;28;20433;-84
2023/05/20 00:49:22;;;;;;;4.85;3.70;;;;;;;;;;5025060;28;20389;-85
2023/05/20 00:51:48;;;;;;;4.78;4.05;;;;;;;;;;5021469;28;20383;-84
2023/05/20 00:54:14;;;;;;;4.28;3.88;;;;;;;;;;5028116;28;20402;-84
2023/05/20 00:56:41;;;;;;;4.20;3.80;;;;;;;;;;5030951;28;20592;-84
2023/05/20 00:59:07;;;;;;;4.18;3.88;;;;;;;;;;5030751;28;20417;-84
2023/05/20 01:01:33;;;;;;;4.40;3.95;;;;;;;;;;5031398;28;20514;-84
2023/05/20 01:03:59;;;;;;;4.10;3.80;;;;;;;;;;5030641;28;20875;-84
2023/05/20 01:06:27;;;;;;;4.18;3.78;;;;;;;;;;5031312;28;20486;-84
2023/05/20 01:08:53;;;;;;;4.10;3.80;;;;;;;;;;5031310;28;20379;-84
2023/05/20 01:11:28;;;;;;;4.60;3.75;;;;;;;;;;5030998;28;20379;-84
2023/05/20 01:13:55;;;;;;;4.55;4.15;;;;;;;;;;5031360;28;20379;-84
2023/05/20 01:16:23;;;;;;;3.70;3.40;;;;;;;;;;5031368;28;20383;-84
2023/05/20 01:18:50;;;;;;;4.00;3.70;;;;;;;;;;5031361;28;20394;-84
2023/05/20 01:21:16;;;;;;;4.88;3.90;;;;;;;;;;5023306;28;20422;-85
2023/05/20 01:23:43;;;;;;;4.30;3.50;;;;;;;;;;5030584;28;20422;-84
2023/05/20 01:26:12;;;;;;;4.70;4.00;;;;;;;;;;5030893;28;20375;-84
2023/05/20 01:28:38;;;;;;;3.95;3.55;;;;;;;;;;5031000;28;20765;-84
2023/05/20 01:31:06;;;;;;;4.88;3.63;;;;;;;;;;5026357;28;20388;-84
2023/05/20 01:33:35;;;;;;;4.40;4.00;;;;;;;;;;5029122;28;20926;-84
2023/05/20 01:36:01;;;;;;;3.95;3.55;;;;;;;;;;5030988;28;20391;-84
2023/05/20 01:38:28;;;;;;;4.32;3.72;;;;;;;;;;5029620;28;20877;-84
2023/05/20 01:40:54;;;;;;;3.60;3.30;;;;;;;;;;5030960;28;20527;-84
2023/05/20 01:43:21;;;;;;;4.25;3.63;;;;;;;;;;5030968;28;20411;-84
2023/05/20 01:45:47;;;;;;;3.83;3.53;;;;;;;;;;5031052;28;20873;-85
2023/05/20 01:48:13;;;;;;;4.22;3.92;;;;;;;;;;5018009;28;20411;-84
2023/05/20 01:50:39;;;;;;;4.70;3.42;;;;;;;;;;5030370;28;20395;-84
2023/05/20 01:53:07;;;;;;;4.63;3.50;;;;;;;;;;5020805;28;20419;-85
2023/05/20 01:55:33;;;;;;;3.90;3.50;;;;;;;;;;5029535;28;20799;-85
2023/05/20 01:57:59;;;;;;;4.03;3.63;;;;;;;;;;5027595;28;20383;-84
2023/05/20 02:00:25;;;;;;;5.07;3.67;;;;;;;;;;5030730;28;20398;-84
2023/05/20 02:02:51;;;;;;;3.88;3.38;;;;;;;;;;5030468;28;20418;-84
2023/05/20 02:05:17;;;;;;;3.55;3.33;;;;;;;;;;5030228;28;20399;-84
2023/05/20 02:07:43;;;;;;;3.90;3.50;;;;;;;;;;5030415;28;20458;-83
2023/05/20 02:10:09;;;;;;;3.85;3.45;;;;;;;;;;5024300;28;20476;-83
2023/05/20 02:12:35;;;;;;;3.97;3.63;;;;;;;;;;5014854;28;20432;-84
2023/05/20 02:15:01;;;;;;;3.80;3.30;;;;;;;;;;5026042;28;20391;-84
2023/05/20 02:17:28;;;;;;;3.80;3.40;;;;;;;;;;5032400;28;20386;-83
2023/05/20 02:19:54;;;;;;;4.00;3.60;;;;;;;;;;5032433;28;20406;-86
2023/05/20 02:22:20;;;;;;;3.53;3.22;;;;;;;;;;5034527;28;20382;-84
2023/05/20 02:24:46;;;;;;;4.07;3.67;;;;;;;;;;5034470;28;20437;-83
2023/05/20 02:27:12;;;;;;;4.13;3.77;;;;;;;;;;5029775;28;20388;-83
2023/05/20 02:29:38;;;;;;;3.67;3.28;;;;;;;;;;5014764;28;20414;-84
2023/05/20 02:32:04;;;;;;;3.83;3.20;;;;;;;;;;5014568;28;20393;-84
2023/05/20 02:34:31;;;;;;;4.63;3.55;;;;;;;;;;5014700;28;20906;-83
2023/05/20 02:36:57;;;;;;;3.75;3.38;;;;;;;;;;5014221;28;20395;-83
2023/05/20 02:39:23;;;;;;;3.92;3.53;;;;;;;;;;5019718;28;20387;-84
2023/05/20 02:41:49;;;;;;;4.30;3.13;;;;;;;;;;5031967;28;20399;-84
2023/05/20 02:44:15;;;;;;;3.45;3.15;;;;;;;;;;5029807;28;20420;-84
2023/05/20 02:46:41;;;;;;;3.63;3.33;;;;;;;;;;5013810;28;20396;-84
2023/05/20 02:49:07;;;;;;;3.80;3.50;;;;;;;;;;5016702;28;20413;-84
2023/05/20 02:51:33;;;;;;;4.28;3.55;;;;;;;;;;5027342;28;20414;-83
2023/05/20 02:53:59;;;;;;;3.70;3.37;;;;;;;;;;5032166;28;20566;-85
2023/05/20 02:56:25;;;;;;;4.30;3.63;;;;;;;;;;5032961;28;20790;-85
2023/05/20 02:58:52;;;;;;;3.92;3.38;;;;;;;;;;5033074;28;20873;-84
2023/05/20 03:01:18;;;;;;;3.80;3.50;;;;;;;;;;5033614;28;20458;-84
2023/05/20 03:03:43;;;;;;;4.65;3.38;;;;;;;;;;5023970;28;20424;-84
2023/05/20 03:06:10;;;;;;;3.75;3.35;;;;;;;;;;5013547;28;21525;-84
2023/05/20 03:08:36;;;;;;;3.60;3.30;;;;;;;;;;5014264;28;20416;-84
2023/05/20 03:11:02;;;;;;;3.77;3.37;;;;;;;;;;5026472;28;20394;-84
2023/05/20 03:13:28;;;;;;;4.05;3.60;;;;;;;;;;5014212;28;20380;-83
2023/05/20 03:15:54;;;;;;;3.70;3.40;;;;;;;;;;5013669;28;20760;-84
2023/05/20 03:18:20;;;;;;;3.63;3.30;;;;;;;;;;5013569;28;20396;-84
2023/05/20 03:20:46;;;;;;;3.92;3.63;;;;;;;;;;5031874;28;20383;-84
2023/05/20 03:23:13;;;;;;;3.88;3.58;;;;;;;;;;5031904;28;20777;-84
2023/05/20 03:25:40;;;;;;;3.70;3.40;;;;;;;;;;5025034;28;20434;-84
2023/05/20 03:28:06;;;;;;;4.13;3.80;;;;;;;;;;5016059;28;20385;-85
2023/05/20 03:30:32;;;;;;;3.80;3.50;;;;;;;;;;5026791;28;20387;-83
2023/05/20 03:32:58;;;;;;;4.28;3.70;;;;;;;;;;5024567;28;20394;-83
2023/05/20 03:35:24;;;;;;;3.60;3.30;;;;;;;;;;5031265;28;20387;-83
2023/05/20 03:37:52;;;;;;;3.78;3.47;;;;;;;;;;5030524;28;20472;-84
2023/05/20 03:40:19;;;;;;;3.67;3.38;;;;;;;;;;5034859;28;20737;-84
2023/05/20 03:42:45;;;;;;;4.55;4.03;;;;;;;;;;5032250;28;20765;-84
2023/05/20 03:45:11;;;;;;;3.72;3.42;;;;;;;;;;5033274;28;20392;-83
2023/05/20 03:47:37;;;;;;;3.83;3.53;;;;;;;;;;5031155;28;21840;-84
2023/05/20 03:50:04;;;;;;;4.30;4.00;;;;;;;;;;5032878;28;20479;-83
2023/05/20 03:52:30;;;;;;;4.00;3.60;;;;;;;;;;5031393;28;20395;-84
2023/05/20 03:54:56;;;;;;;4.75;4.22;;;;;;;;;;5024567;28;20395;-83
2023/05/20 03:57:22;;;;;;;3.45;3.20;;;;;;;;;;5030939;28;20898;-83
2023/05/20 03:59:48;;;;;;;4.57;4.00;;;;;;;;;;5013171;28;20411;-84
2023/05/20 04:02:15;;;;;;;4.72;3.63;;;;;;;;;;5024232;28;20382;-83
2023/05/20 04:04:44;;;;;;;3.97;3.67;;;;;;;;;;5025696;28;20807;-85
2023/05/20 04:07:10;;;;;;;4.20;3.80;;;;;;;;;;5024283;28;20922;-83
2023/05/20 04:09:37;;;;;;;4.35;3.95;;;;;;;;;;5029412;28;20383;-84
2023/05/20 04:12:03;;;;;;;4.70;4.30;;;;;;;;;;5032700;28;20416;-82
2023/05/20 04:14:29;;;;;;;4.78;4.38;;;;;;;;;;5030017;28;20380;-83
2023/05/20 04:16:55;;;;;;;4.32;4.03;;;;;;;;;;5031919;28;21886;-84
2023/05/20 04:19:22;;;;;;;4.80;4.40;;;;;;;;;;5034799;28;20387;-83
2023/05/20 04:21:49;;;;;;;4.95;4.55;;;;;;;;;;5013314;28;20538;-83
2023/05/20 04:24:15;;;;;;;4.80;4.35;;;;;;;;;;5031945;28;20415;-83
2023/05/20 04:26:41;;;;;;;5.00;4.60;;;;;;;;;;5031869;28;20402;-83
2023/05/20 04:29:07;;;;;;;5.43;5.03;;;;;;;;;;5032225;28;20383;-84
2023/05/20 04:31:33;;;;;;;4.68;4.28;;;;;;;;;;5032155;28;20382;-84
2023/05/20 04:33:59;;;;;;;5.20;4.70;;;;;;;;;;5032284;28;20386;-83
2023/05/20 04:36:27;;;;;;;5.60;5.20;;;;;;;;;;5031956;28;20449;-84
2023/05/20 04:38:53;;;;;;;5.15;4.75;;;;;;;;;;5031643;28;20413;-83
2023/05/20 04:41:19;;;;;;;5.00;4.60;;;;;;;;;;5030564;28;20896;-84
2023/05/20 04:43:45;;;;;;;5.35;4.95;;;;;;;;;;5031619;28;20411;-84
2023/05/20 04:46:12;;;;;;;5.45;4.80;;;;;;;;;;5031333;28;20429;-84
2023/05/20 04:48:38;;;;;;;5.25;4.85;;;;;;;;;;5031817;28;20383;-84
2023/05/20 04:51:05;;;;;;;6.28;5.25;;;;;;;;;;5031734;28;20781;-84
2023/05/20 04:53:32;;;;;;;5.57;5.07;;;;;;;;;;5032113;28;20383;-83
2023/05/20 04:55:58;;;;;;;6.00;5.50;;;;;;;;;;5031418;28;20445;-84
2023/05/20 04:58:25;;;;;;;6.00;5.50;;;;;;;;;;5030152;28;20387;-84
2023/05/20 05:00:51;;;;;;;7.15;6.55;;;;;;;;;;5030074;28;21054;-83
2023/05/20 05:03:17;;;;;;;6.63;6.13;;;;;;;;;;5012061;28;20870;-83
2023/05/20 05:05:43;;;;;;;5.82;5.43;;;;;;;;;;5011818;28;20393;-84
2023/05/20 05:08:12;;;;;;;7.00;6.40;;;;;;;;;;5025828;28;20381;-83
2023/05/20 05:10:38;;;;;;;6.82;6.32;;;;;;;;;;5011539;28;20748;-84
2023/05/20 05:13:04;;;;;;;6.72;6.22;;;;;;;;;;5025412;28;20377;-83
2023/05/20 05:15:30;;;;;;;6.70;6.20;;;;;;;;;;5030117;28;20893;-83
2023/05/20 05:17:56;;;;;;;7.00;6.50;;;;;;;;;;5016317;28;20400;-84
2023/05/20 05:20:23;;;;;;;6.70;6.20;;;;;;;;;;5011607;28;20400;-83
2023/05/20 05:22:49;;;;;;;7.55;6.85;;;;;;;;;;5023061;28;20889;-83
2023/05/20 05:25:15;;;;;;;7.15;6.63;;;;;;;;;;5016608;28;20395;-83
2023/05/20 05:27:41;;;;;;;7.07;6.47;;;;;;;;;;5029109;28;20398;-83
2023/05/20 05:30:08;;;;;;;6.47;5.97;;;;;;;;;;5027648;28;20388;-82
2023/05/20 05:32:34;;;;;;;6.93;6.35;;;;;;;;;;5026913;28;20798;-83
2023/05/20 05:35:00;;;;;;;7.10;6.60;;;;;;;;;;5027578;28;20401;-82
2023/05/20 05:37:26;;;;;;;7.30;6.70;;;;;;;;;;5011303;28;20475;-83
2023/05/20 05:39:52;;;;;;;8.05;7.45;;;;;;;;;;5011669;28;20472;-83
2023/05/20 05:42:18;;;;;;;8.30;7.60;;;;;;;;;;5019427;28;20962;-82
2023/05/20 05:44:44;;;;;;;8.10;6.87;;;;;;;;;;5011139;28;20404;-83
2023/05/20 05:47:10;;;;;;;6.93;6.43;;;;;;;;;;5024569;28;20858;-82
2023/05/20 05:49:36;;;;;;;8.27;7.68;;;;;;;;;;5011283;28;20480;-83
2023/05/20 05:52:02;;;;;;;8.03;7.43;;;;;;;;;;5014258;28;20881;-83
2023/05/20 05:54:28;;;;;;;8.60;7.90;;;;;;;;;;5018831;28;20398;-83
2023/05/20 05:56:55;;;;;;;7.78;7.20;;;;;;;;;;5034485;28;20753;-83
2023/05/20 05:59:21;;;;;;;7.50;7.00;;;;;;;;;;5025352;28;21203;-83
2023/05/20 06:01:47;;;;;;;7.80;7.10;;;;;;;;;;5015291;28;20475;-82
2023/05/20 06:04:13;;;;;;;7.30;6.70;;;;;;;;;;5015062;28;20416;-83
2023/05/20 06:06:42;;;;;;;8.47;7.87;;;;;;;;;;5019826;28;20383;-83
2023/05/20 06:09:08;;;;;;;8.60;8.00;;;;;;;;;;5022686;28;20396;-84
2023/05/20 06:11:34;;;;;;;9.45;8.75;;;;;;;;;;5014674;28;20380;-83
2023/05/20 06:14:01;;;;;;;9.48;8.80;;;;;;;;;;5014902;28;20882;-83
2023/05/20 06:16:27;;;;;;;10.30;9.50;;;;;;;;;;5014375;28;20388;-84
2023/05/20 06:18:55;;;;;;;11.00;10.10;;;;;;;;;;5021666;28;20386;-84
2023/05/20 06:21:22;;;;;;;11.50;10.48;;;;;;;;;;5031052;28;20386;-84
2023/05/20 06:23:48;;;;;;;10.87;10.07;;;;;;;;;;5021846;28;20473;-84
2023/05/20 06:26:14;;;;;;;10.52;9.73;;;;;;;;;;5021138;28;20775;-85
2023/05/20 06:28:40;;;;;;;10.63;9.82;;;;;;;;;;5015887;28;20393;-84
2023/05/20 06:31:06;;;;;;;10.45;9.65;;;;;;;;;;5033542;28;20433;-84
2023/05/20 06:33:32;;;;;;;10.53;9.73;;;;;;;;;;5029815;28;20383;-85
2023/05/20 06:36:00;;;;;;;10.70;9.77;;;;;;;;;;5024907;28;20401;-83
2023/05/20 06:38:26;;;;;;;10.23;9.50;;;;;;;;;;5034460;28;20386;-85
2023/05/20 06:40:52;;;;;;;10.88;10.02;;;;;;;;;;5029426;28;20407;-83
2023/05/20 06:43:18;;;;;;;11.05;10.25;;;;;;;;;;5033136;28;20407;-90
2023/05/20 06:45:45;;;;;;;10.80;10.00;;;;;;;;;;5032166;28;20445;-86
2023/05/20 06:48:11;;;;;;;11.30;10.30;;;;;;;;;;5032279;28;20414;-89
2023/05/20 06:50:37;;;;;;;10.88;10.07;;;;;;;;;;5029119;28;20798;-88
2023/05/20 06:53:03;;;;;;;10.10;9.30;;;;;;;;;;5037821;28;20387;-87
2023/05/20 06:55:29;;;;;;;9.37;8.67;;;;;;;;;;5029455;28;20747;-87
2023/05/20 06:57:56;;;;;;;9.73;8.93;;;;;;;;;;5032659;28;20497;-86
2023/05/20 07:00:22;;;;;;;10.00;9.20;;;;;;;;;;5023276;28;20396;-88
2023/05/20 07:02:47;;;;;;;9.30;8.60;;;;;;;;;;5025241;28;20387;-88
2023/05/20 07:05:14;;;;;;;8.60;7.95;;;;;;;;;;5026403;28;20395;-86
2023/05/20 07:07:40;;;;;;;8.73;8.13;;;;;;;;;;5018284;28;20396;-85
2023/05/20 07:10:06;;;;;;;8.80;8.20;;;;;;;;;;5033558;28;20402;-86
2023/05/20 07:12:32;;;;;;;8.95;8.15;;;;;;;;;;5024827;28;20390;-87
2023/05/20 07:14:58;;;;;;;9.03;8.43;;;;;;;;;;5015107;28;20393;-87
2023/05/20 07:17:25;;;;;;;8.45;7.85;;;;;;;;;;5017280;28;20381;-87
2023/05/20 07:19:51;;;;;;;8.88;8.07;;;;;;;;;;5018643;28;20383;-85
2023/05/20 07:22:17;;;;;;;9.10;8.40;;;;;;;;;;5013353;28;20388;-86
2023/05/20 07:24:43;;;;;;;8.90;8.30;;;;;;;;;;5028026;28;20524;-86
2023/05/20 07:27:09;;;;;;;9.02;8.27;;;;;;;;;;5029080;28;20458;-87
2023/05/20 07:29:36;;;;;;;8.90;8.20;;;;;;;;;;5017581;28;20389;-85
2023/05/20 07:32:03;;;;;;;9.95;8.05;;;;;;;;;;5026002;28;20483;-88
2023/05/20 07:34:29;;;;;;;9.63;8.93;;;;;;;;;;5024439;28;20955;-87
2023/05/20 07:36:55;;;;;;;9.82;9.02;;;;;;;;;;5016415;28;20389;-86
2023/05/20 07:39:22;;;;;;;9.30;8.50;;;;;;;;;;5013673;28;20934;-87
2023/05/20 07:41:48;;;;;;;9.27;8.57;;;;;;;;;;5027071;28;20426;-86
2023/05/20 07:44:14;;;;;;;9.63;8.93;;;;;;;;;;5029050;28;20450;-87
2023/05/20 07:46:40;;;;;;;10.05;9.15;;;;;;;;;;5030554;28;20473;-86
2023/05/20 07:49:07;;;;;;;9.18;8.38;;;;;;;;;;5032675;28;20474;-86
2023/05/20 07:51:33;;;;;;;9.57;8.87;;;;;;;;;;5028548;28;20789;-86
2023/05/20 07:53:59;;;;;;;10.00;9.23;;;;;;;;;;5015514;28;20392;-86
2023/05/20 07:56:25;;;;;;;9.40;8.60;;;;;;;;;;5020938;28;20406;-87
2023/05/20 07:58:55;;;;;;;9.57;8.83;;;;;;;;;;5018620;28;20388;-86
2023/05/20 08:01:21;;;;;;;9.40;8.63;;;;;;;;;;5015084;28;20481;-88
2023/05/20 08:03:47;;;;;;;9.18;8.48;;;;;;;;;;5019593;28;20413;-89
2023/05/20 08:06:13;;;;;;;9.55;8.68;;;;;;;;;;5030441;28;20397;-88
2023/05/20 08:08:40;;;;;;;9.47;8.67;;;;;;;;;;5031618;28;20402;-87
2023/05/20 08:11:06;;;;;;;9.23;8.53;;;;;;;;;;5031656;28;20388;-89
2023/05/20 08:13:32;;;;;;;8.82;8.18;;;;;;;;;;5016186;28;20396;-87
2023/05/20 08:15:58;;;;;;;9.43;8.63;;;;;;;;;;5018182;28;20477;-85
2023/05/20 08:18:26;;;;;;;14.75;13.55;;;;;;;;;;5032131;28;20474;-88
2023/05/20 08:20:52;;;;;;;9.43;8.53;;;;;;;;;;5026912;28;20387;-85
2023/05/20 08:23:18;;;;;;;9.77;8.90;;;;;;;;;;5023071;28;20411;-85
2023/05/20 08:25:47;;;;;;;10.00;9.20;;;;;;;;;;5032354;28;20398;-85
2023/05/20 08:28:13;;;;;;;13.00;11.80;;;;;;;;;;5026415;28;20381;-86
2023/05/20 08:30:40;;;;;;;12.73;11.73;;;;;;;;;;5012758;28;20392;-85
2023/05/20 08:33:06;;;;;;;10.18;9.32;;;;;;;;;;5012105;28;20447;-85
2023/05/20 08:35:32;;;;;;;9.80;9.05;;;;;;;;;;5020860;28;20410;-85
2023/05/20 08:38:00;;;;;;;9.70;8.80;;;;;;;;;;5030053;28;20391;-85
2023/05/20 08:40:26;;;;;;;9.90;9.20;;;;;;;;;;5017216;28;20387;-85
2023/05/20 08:42:52;;;;;;;9.40;8.45;;;;;;;;;;5024006;28;20734;-86
2023/05/20 08:45:26;;;;;;;9.55;8.77;;;;;;;;;;5012733;28;20867;-85
2023/05/20 08:47:52;;;;;;;9.70;8.90;;;;;;;;;;5020206;28;20386;-85
2023/05/20 08:50:18;;;;;;;9.45;8.70;;;;;;;;;;5017296;28;20397;-85
2023/05/20 08:52:45;;;;;;;10.10;9.20;;;;;;;;;;5023664;28;20380;-85
2023/05/20 08:55:17;;;;;;;9.57;8.77;;;;;;;;;;5030332;28;20392;-85
2023/05/20 08:57:44;;;;;;;9.23;8.52;;;;;;;;;;5021320;28;20435;-85
2023/05/20 09:00:12;;;;;;;8.55;7.95;;;;;;;;;;5011913;28;20397;-85
2023/05/20 09:02:41;;;;;;;8.60;7.90;;;;;;;;;;5016598;28;20523;-85
2023/05/20 09:05:08;;;;;;;8.85;8.15;;;;;;;;;;5024419;28;20505;-86
2023/05/20 09:07:34;;;;;;;8.50;7.90;;;;;;;;;;5027372;28;20482;-86
2023/05/20 09:10:00;;;;;;;8.27;7.68;;;;;;;;;;5031158;28;20398;-86
2023/05/20 09:12:26;;;;;;;8.82;8.07;;;;;;;;;;5026552;28;20883;-85
2023/05/20 09:14:52;;;;;;;7.80;7.20;;;;;;;;;;5015497;28;20389;-86
2023/05/20 09:17:18;;;;;;;8.50;7.75;;;;;;;;;;5027975;28;20464;-85
2023/05/20 09:19:44;;;;;;;9.20;8.50;;;;;;;;;;5025953;28;20393;-85
2023/05/20 09:22:10;;;;;;;8.02;7.32;;;;;;;;;;5026645;28;20383;-84
2023/05/20 09:24:36;;;;;;;8.07;7.47;;;;;;;;;;5031202;28;20426;-84
2023/05/20 09:27:02;;;;;;;8.18;7.47;;;;;;;;;;5029046;28;20395;-85
2023/05/20 09:29:28;;;;;;;8.23;7.53;;;;;;;;;;5029078;28;20415;-83
2023/05/20 09:31:55;;;;;;;7.72;7.03;;;;;;;;;;5021217;28;20397;-82
2023/05/20 09:34:21;;;;;;;7.65;7.05;;;;;;;;;;5030425;28;20391;-82
2023/05/20 09:36:49;;;;;;;7.97;7.38;;;;;;;;;;5030418;28;20846;-82
2023/05/20 09:39:16;;;;;;;7.20;6.60;;;;;;;;;;5030965;28;20405;-83
2023/05/20 09:41:49;;;;;;;7.28;6.78;;;;;;;;;;5030864;28;20812;-82
2023/05/20 09:44:15;;;;;;;7.45;6.65;;;;;;;;;;5030186;28;20492;-81
2023/05/20 09:46:42;;;;;;;7.55;6.80;;;;;;;;;;5026310;28;20785;-84
2023/05/20 09:49:09;;;;;;;7.60;7.00;;;;;;;;;;5030780;28;20387;-86
2023/05/20 09:51:35;;;;;;;7.13;6.63;;;;;;;;;;5029641;28;20379;-83
2023/05/20 09:54:02;;;;;;;7.20;6.60;;;;;;;;;;5029178;28;20870;-83
2023/05/20 09:56:28;;;;;;;8.40;7.70;;;;;;;;;;5021632;28;20440;-82
2023/05/20 09:58:57;;;;;;;8.73;8.02;;;;;;;;;;5030755;28;20383;-82
2023/05/20 10:01:24;;;;;;;9.02;8.32;;;;;;;;;;5030894;28;20461;-85
2023/05/20 10:03:50;;;;;;;8.43;7.75;;;;;;;;;;5034914;28;20524;-85
2023/05/20 10:06:26;;;;;;;8.57;7.97;;;;;;;;;;5033346;28;21162;-85
2023/05/20 10:09:14;;;;;;;8.85;8.05;;;;;;;;;;5041233;28;20386;-85
2023/05/20 10:12:09;;;;;;;8.02;7.32;;;;;;;;;;5039559;28;20383;-86
2023/05/20 10:14:54;;;;;;;7.97;7.37;;;;;;;;;;4986687;28;20491;-85
2023/05/20 10:17:39;;;;;;;8.40;7.80;;;;;;;;;;5009974;28;20458;-85
2023/05/20 10:20:10;;;;;;;7.68;7.13;;;;;;;;;;5011418;28;20381;-85
2023/05/20 10:22:36;;;;;;;8.20;7.60;;;;;;;;;;5025306;28;20454;-85
2023/05/20 10:25:06;;;;;;;7.97;7.28;;;;;;;;;;5011390;28;20432;-85
2023/05/20 10:27:48;;;;;;;7.63;7.03;;;;;;;;;;5014696;28;20379;-86
2023/05/20 10:30:18;;;;;;;7.50;6.90;;;;;;;;;;5028021;28;20383;-87
2023/05/20 10:32:59;;;;;;;7.75;7.15;;;;;;;;;;5031757;28;20383;-87
2023/05/20 10:35:26;;;;;;;7.65;7.05;;;;;;;;;;5025137;28;20385;-86
2023/05/20 10:37:53;;;;;;;8.10;7.43;;;;;;;;;;5029408;28;20426;-88
2023/05/20 10:40:20;;;;;;;8.05;7.35;;;;;;;;;;5026603;28;20400;-87
2023/05/20 10:42:46;;;;;;;7.60;7.10;;;;;;;;;;5032986;28;20904;-89
2023/05/20 10:45:24;;;;;;;7.70;7.00;;;;;;;;;;5032563;28;20423;-87
2023/05/20 10:47:57;;;;;;;8.10;7.50;;;;;;;;;;5029498;28;20387;-87
2023/05/20 10:50:34;;;;;;;7.63;7.03;;;;;;;;;;5032495;28;20395;-87
2023/05/20 10:53:06;;;;;;;7.70;7.10;;;;;;;;;;5026250;28;20416;-87
2023/05/20 10:55:37;;;;;;;7.30;6.80;;;;;;;;;;5033317;28;20391;-88
2023/05/20 10:58:03;;;;;;;7.45;6.95;;;;;;;;;;5032062;28;20848;-88
2023/05/20 11:00:29;;;;;;;7.68;7.07;;;;;;;;;;5031369;28;20399;-89
2023/05/20 11:02:55;;;;;;;7.22;6.68;;;;;;;;;;5032344;28;20383;-88
2023/05/20 11:05:21;;;;;;;7.35;6.68;;;;;;;;;;5033441;28;20498;-88
2023/05/20 11:07:47;;;;;;;8.07;7.38;;;;;;;;;;5032787;28;20435;-89
2023/05/20 11:10:13;;;;;;;7.28;6.78;;;;;;;;;;5031275;28;20471;-88
2023/05/20 11:12:39;;;;;;;7.45;6.85;;;;;;;;;;5027472;28;20388;-88
2023/05/20 11:15:06;;;;;;;7.65;7.05;;;;;;;;;;5015833;28;20423;-88
2023/05/20 11:17:32;;;;;;;6.80;6.30;;;;;;;;;;5031106;28;20877;-87
2023/05/20 11:19:59;;;;;;;7.00;6.40;;;;;;;;;;5032996;28;20388;-88
2023/05/20 11:22:26;;;;;;;7.68;7.10;;;;;;;;;;5017112;28;20759;-88
2023/05/20 11:24:52;;;;;;;7.35;6.75;;;;;;;;;;5025540;28;20433;-87
2023/05/20 11:27:18;;;;;;;7.28;6.78;;;;;;;;;;5031800;28;20380;-88
2023/05/20 11:29:44;;;;;;;7.80;7.10;;;;;;;;;;5029100;28;20477;-87
2023/05/20 11:32:11;;;;;;;7.67;7.07;;;;;;;;;;5031675;28;20399;-85
2023/05/20 11:34:38;;;;;;;7.70;7.10;;;;;;;;;;5032857;28;20390;-86
2023/05/20 11:37:08;;;;;;;7.40;6.85;;;;;;;;;;5021021;28;20451;-85
2023/05/20 11:39:34;;;;;;;7.65;7.15;;;;;;;;;;5025690;28;20381;-86
2023/05/20 11:42:00;;;;;;;7.37;6.87;;;;;;;;;;5025834;28;20450;-86
2023/05/20 11:44:26;;;;;;;7.65;7.05;;;;;;;;;;5028881;28;20411;-85
2023/05/20 11:46:58;;;;;;;8.18;7.50;;;;;;;;;;5032289;28;20406;-86
2023/05/20 11:49:24;;;;;;;7.90;7.30;;;;;;;;;;5012986;28;20412;-86
2023/05/20 11:51:50;;;;;;;9.57;8.77;;;;;;;;;;5013339;28;20388;-84
2023/05/20 11:54:16;;;;;;;9.25;8.45;;;;;;;;;;5026696;28;20431;-85
2023/05/20 11:56:44;;;;;;;8.02;7.30;;;;;;;;;;5029465;28;21241;-84
2023/05/20 11:59:10;;;;;;;7.60;7.10;;;;;;;;;;5032238;28;20426;-87
2023/05/20 12:01:39;;;;;;;8.48;7.68;;;;;;;;;;5029448;28;20814;-87
2023/05/20 12:04:05;;;;;;;9.38;8.68;;;;;;;;;;5029405;28;20826;-87
2023/05/20 12:06:31;;;;;;;8.73;8.05;;;;;;;;;;5025937;28;20399;-86
2023/05/20 12:08:59;;;;;;;8.90;8.20;;;;;;;;;;5018337;28;20475;-86
2023/05/20 12:11:25;;;;;;;8.50;7.90;;;;;;;;;;5032672;28;20390;-85
2023/05/20 12:13:51;;;;;;;8.48;7.88;;;;;;;;;;5022397;28;20418;-86
2023/05/20 12:16:17;;;;;;;8.25;7.65;;;;;;;;;;5016670;28;20385;-85
2023/05/20 12:18:43;;;;;;;8.70;8.10;;;;;;;;;;5030846;28;20772;-84
2023/05/20 12:21:09;;;;;;;7.43;6.82;;;;;;;;;;5032021;28;20398;-87
2023/05/20 12:23:35;;;;;;;7.55;7.05;;;;;;;;;;5031891;28;20411;-84
2023/05/20 12:26:01;;;;;;;7.88;7.28;;;;;;;;;;5031663;28;20774;-85
2023/05/20 12:28:27;;;;;;;7.82;7.32;;;;;;;;;;5032240;28;20383;-85
2023/05/20 12:30:53;;;;;;;8.02;7.43;;;;;;;;;;5026699;28;20390;-86
2023/05/20 12:33:19;;;;;;;8.55;7.85;;;;;;;;;;5012757;28;20467;-85
2023/05/20 12:35:45;;;;;;;8.43;7.82;;;;;;;;;;5027652;28;20422;-85
2023/05/20 12:38:11;;;;;;;8.25;7.65;;;;;;;;;;5032415;28;20936;-84
2023/05/20 12:40:37;;;;;;;8.90;8.10;;;;;;;;;;5032170;28;20453;-85
2023/05/20 12:43:04;;;;;;;8.45;7.68;;;;;;;;;;5030802;28;20415;-85
2023/05/20 12:45:30;;;;;;;8.20;7.50;;;;;;;;;;5031809;28;20415;-85
2023/05/20 12:47:56;;;;;;;8.07;7.38;;;;;;;;;;5031608;28;20387;-86
2023/05/20 12:50:24;;;;;;;8.07;7.47;;;;;;;;;;5020142;28;20392;-85
2023/05/20 12:52:50;;;;;;;7.32;6.70;;;;;;;;;;5015869;28;20387;-85
2023/05/20 12:55:18;;;;;;;7.32;6.72;;;;;;;;;;5021107;28;20416;-85
2023/05/20 12:57:45;;;;;;;6.93;6.20;;;;;;;;;;5023241;28;20870;-85
2023/05/20 13:00:11;;;;;;;7.43;6.82;;;;;;;;;;5024502;28;20398;-85
2023/05/20 13:02:38;;;;;;;7.20;6.60;;;;;;;;;;5029978;28;20490;-85
2023/05/20 13:05:05;;;;;;;7.10;6.60;;;;;;;;;;5026434;28;20756;-86
2023/05/20 13:07:31;;;;;;;8.02;7.32;;;;;;;;;;5031100;28;20854;-85
2023/05/20 13:09:57;;;;;;;8.70;8.03;;;;;;;;;;5030083;28;20398;-84
2023/05/20 13:12:23;;;;;;;8.70;7.80;;;;;;;;;;5031149;28;20462;-83
2023/05/20 13:14:49;;;;;;;8.63;8.02;;;;;;;;;;5020202;28;20517;-84
2023/05/20 13:17:15;;;;;;;8.48;7.80;;;;;;;;;;5031196;28;20531;-84
2023/05/20 13:19:41;;;;;;;8.43;7.82;;;;;;;;;;5030761;28;20762;-84
2023/05/20 13:22:10;;;;;;;7.47;6.87;;;;;;;;;;5031569;28;20434;-84
2023/05/20 13:24:37;;;;;;;7.72;7.22;;;;;;;;;;5032205;28;20516;-84
2023/05/20 13:27:03;;;;;;;8.60;7.90;;;;;;;;;;5035019;28;20393;-84
2023/05/20 13:29:29;;;;;;;7.75;7.15;;;;;;;;;;5039661;28;20444;-84
2023/05/20 13:31:55;;;;;;;7.47;6.85;;;;;;;;;;5036125;28;20406;-84
2023/05/20 13:34:21;;;;;;;7.80;7.20;;;;;;;;;;5029316;28;20413;-84
2023/05/20 13:36:47;;;;;;;7.90;7.30;;;;;;;;;;5028996;28;20549;-84
2023/05/20 13:39:17;;;;;;;7.80;7.30;;;;;;;;;;5027963;28;20862;-84
2023/05/20 13:41:43;;;;;;;7.40;6.90;;;;;;;;;;5013657;28;20399;-85
2023/05/20 13:44:09;;;;;;;7.43;6.82;;;;;;;;;;5011464;28;20483;-85
2023/05/20 13:46:35;;;;;;;7.05;6.40;;;;;;;;;;5025208;28;20477;-86
2023/05/20 13:49:01;;;;;;;7.65;7.07;;;;;;;;;;5029479;28;20403;-85
2023/05/20 13:51:27;;;;;;;8.00;7.40;;;;;;;;;;5029404;28;20387;-85
2023/05/20 13:53:53;;;;;;;7.13;6.57;;;;;;;;;;5030089;28;20817;-85
2023/05/20 13:56:20;;;;;;;6.10;5.70;;;;;;;;;;5029886;28;20426;-85
2023/05/20 13:58:46;;;;;;;7.23;6.73;;;;;;;;;;5020437;28;20400;-85
2023/05/20 14:01:12;;;;;;;7.15;6.65;;;;;;;;;;5022780;28;20770;-85
2023/05/20 14:03:39;;;;;;;7.13;6.60;;;;;;;;;;5018830;28;20450;-84
2023/05/20 14:06:05;;;;;;;6.68;6.20;;;;;;;;;;5011438;28;20899;-84
2023/05/20 14:08:31;;;;;;;6.68;6.18;;;;;;;;;;5015909;28;20407;-86
2023/05/20 14:10:57;;;;;;;6.90;6.30;;;;;;;;;;5028289;28;20517;-87
2023/05/20 14:13:24;;;;;;;6.45;5.95;;;;;;;;;;5028340;28;20476;-87
2023/05/20 14:15:51;;;;;;;6.57;6.07;;;;;;;;;;5019491;28;20404;-89
2023/05/20 14:18:17;;;;;;;7.00;6.40;;;;;;;;;;5025143;28;20387;-88
2023/05/20 14:20:44;;;;;;;6.93;6.33;;;;;;;;;;5027958;28;20854;-88
2023/05/20 14:23:10;;;;;;;6.72;6.28;;;;;;;;;;5031545;28;20375;-88
2023/05/20 14:25:36;;;;;;;6.53;6.05;;;;;;;;;;5033554;28;20384;-88
2023/05/20 14:28:02;;;;;;;7.10;6.18;;;;;;;;;;5029370;28;20388;-87
2023/05/20 14:30:28;;;;;;;7.47;6.97;;;;;;;;;;5014812;28;20377;-88
2023/05/20 14:32:54;;;;;;;6.75;6.25;;;;;;;;;;5027211;28;20733;-88
2023/05/20 14:35:20;;;;;;;6.93;6.43;;;;;;;;;;5022587;28;20421;-87
2023/05/20 14:37:46;;;;;;;6.75;6.25;;;;;;;;;;5027517;28;20379;-88